Time;durP1;ratioP1;P1;durP2;ratioP2;P2;SDS_P1;SDS_P2;PMS_P1;PMS_P2;Temp;Humidity;BMP_temperature;BMP_pressure;BME280_temperature;BME280_humidity;BME280_pressure;Samples;Min_cycle;Max_cycle;Signal;HPM_P1;HPM_P2
2022/04/26 03:36:23;;;;;;;;;3.00;2.67;;;26.13;97293.56;;;;116787;1198;24797;-57
2022/04/26 03:38:52;;;;;;;;;2.50;2.50;;;26.13;97295.39;;;;116774;1196;25369;-56
2022/04/26 03:41:20;;;;;;;;;4.00;3.00;;;26.12;97295.17;;;;116765;1198;25105;-56
2022/04/26 03:43:48;;;;;;;;;5.33;3.67;;;26.12;97296.03;;;;116946;1198;25847;-57
2022/04/26 03:46:15;;;;;;;;;5.67;3.00;;;26.17;97296.75;;;;116476;1198;25268;-57
2022/04/26 03:48:43;;;;;;;;;5.00;5.00;;;26.15;97299.86;;;;116692;1197;26938;-56
2022/04/26 03:51:11;;;;;;;;;3.00;2.50;;;26.09;97306.52;;;;116899;1196;24776;-57
2022/04/26 03:53:39;;;;;;;;;5.00;4.00;;;26.13;97310.55;;;;116421;1198;25407;-57
2022/04/26 03:56:08;;;;;;;;;2.33;2.00;;;26.15;97310.11;;;;116759;1198;25126;-57
2022/04/26 03:58:36;;;;;;;;;4.50;4.50;;;26.19;97316.38;;;;116774;1197;25716;-56
2022/04/26 04:01:05;;;;;;;;;3.00;3.00;;;26.25;97320.69;;;;116929;1196;24770;-57
2022/04/26 04:03:36;;;;;;;;;5.67;4.00;;;26.30;97321.21;;;;116539;1198;25168;-58
2022/04/26 04:06:04;;;;;;;;;4.75;3.25;;;26.36;97322.57;;;;116756;1197;25616;-57
2022/04/26 04:08:33;;;;;;;;;4.00;4.00;;;26.38;97319.59;;;;116806;1197;25420;-57
2022/04/26 04:11:00;;;;;;;;;3.50;3.50;;;26.41;97319.29;;;;116837;1196;25049;-57
2022/04/26 04:13:28;;;;;;;;;2.50;2.00;;;26.46;97319.84;;;;116784;1197;25794;-57
2022/04/26 04:15:56;;;;;;;;;3.00;2.00;;;26.51;97320.29;;;;116861;1198;25344;-56
2022/04/26 04:21:12;;;;;;;;;4.25;4.00;;;26.58;97328.89;;;;116757;1198;25184;-55
2022/04/26 04:23:40;;;;;;;;;5.50;3.00;;;26.56;97337.81;;;;116722;1196;24894;-55
2022/04/26 04:26:08;;;;;;;;;7.25;4.75;;;26.58;97336.34;;;;116760;1198;25261;-55
2022/04/26 04:28:37;;;;;;;;;9.50;7.00;;;26.57;97341.98;;;;116757;1196;25414;-56
2022/04/26 04:31:05;;;;;;;;;8.50;5.25;;;26.59;97348.80;;;;116839;1197;24909;-56
2022/04/26 04:33:33;;;;;;;;;6.50;6.00;;;26.65;97350.42;;;;116729;1197;25399;-56
2022/04/26 04:36:01;;;;;;;;;11.50;6.00;;;26.65;97352.29;;;;116831;1197;25918;-55
2022/04/26 04:38:28;;;;;;;;;10.50;6.00;;;26.69;97352.19;;;;116771;1197;25475;-55
2022/04/26 04:40:56;;;;;;;;;7.00;6.50;;;26.69;97357.98;;;;116831;1197;26195;-55
2022/04/26 04:43:24;;;;;;;;;8.00;5.00;;;26.71;97360.13;;;;116755;1196;24888;-55
2022/04/26 04:45:52;;;;;;;;;12.50;8.00;;;26.70;97363.13;;;;116744;1197;25184;-54
2022/04/26 04:48:20;;;;;;;;;10.25;7.00;;;26.69;97365.29;;;;116811;1196;24815;-55
2022/04/26 04:50:48;;;;;;;;;9.00;5.00;;;26.69;97366.05;;;;116758;1197;25157;-55
2022/04/26 04:53:19;;;;;;;;;5.50;5.00;;;26.71;97368.02;;;;116817;1197;25592;-54
2022/04/26 04:55:48;;;;;;;;;6.75;6.75;;;26.71;97372.82;;;;116837;1197;25585;-55
2022/04/26 04:58:16;;;;;;;;;8.00;7.00;;;26.71;97372.20;;;;116775;1196;26755;-55
2022/04/26 05:00:44;;;;;;;;;7.50;7.00;;;26.70;97370.61;;;;116633;1196;26292;-55
2022/04/26 05:03:12;;;;;;;;;10.67;6.33;;;26.67;97368.38;;;;116659;1196;26270;-55
2022/04/26 05:05:40;;;;;;;;;9.33;8.00;;;26.64;97370.27;;;;116793;1196;25745;-56
2022/04/26 05:08:10;;;;;;;;;12.33;8.33;;;26.61;97367.73;;;;116795;1198;25341;-56
2022/04/26 05:10:39;;;;;;;;;13.00;6.33;;;26.60;97366.75;;;;116796;1197;25004;-57
2022/04/26 05:13:09;;;;;;;;;14.25;9.50;;;26.58;97373.34;;;;116552;1198;25427;-55
2022/04/26 05:15:38;;;;;;;;;9.67;7.67;;;26.48;97371.45;;;;116769;1198;24947;-57
2022/04/26 05:18:06;;;;;;;;;8.50;8.00;;;26.45;97370.00;;;;116844;1197;25530;-54
2022/04/26 05:20:34;;;;;;;;;9.00;8.00;;;26.44;97371.48;;;;116750;1198;25926;-55
2022/04/26 05:25:48;;;;;;;;;12.33;9.33;;;26.38;97375.56;;;;116788;1197;25915;-56
2022/04/26 05:28:16;;;;;;;;;12.33;8.00;;;26.36;97376.36;;;;116854;1196;25324;-55
2022/04/26 05:30:54;;;;;;;;;16.00;7.67;;;26.37;97383.11;;;;116842;1197;25113;-56
2022/04/26 05:33:22;;;;;;;;;11.00;8.33;;;26.43;97382.47;;;;116775;1197;25542;-54
2022/04/26 05:35:50;;;;;;;;;15.00;12.00;;;26.40;97381.94;;;;116819;1197;24816;-55
2022/04/26 05:38:18;;;;;;;;;10.00;8.50;;;26.39;97381.30;;;;116778;1197;25676;-57
2022/04/26 05:40:46;;;;;;;;;10.33;7.33;;;26.38;97380.20;;;;116794;1198;25029;-54
2022/04/26 05:43:16;;;;;;;;;10.67;9.00;;;26.38;97379.70;;;;116446;1199;25069;-55
2022/04/26 05:45:47;;;;;;;;;13.00;7.00;;;26.34;97383.17;;;;116532;1198;25595;-55
2022/04/26 05:48:15;;;;;;;;;11.25;9.00;;;26.36;97386.66;;;;116772;1197;25365;-55
2022/04/26 05:50:43;;;;;;;;;10.33;7.33;;;26.36;97389.64;;;;116544;1197;24954;-55
2022/04/26 05:53:11;;;;;;;;;10.00;10.00;;;26.38;97389.23;;;;116508;1198;25020;-55
2022/04/26 05:55:39;;;;;;;;;10.50;9.75;;;26.35;97392.74;;;;116447;1198;25470;-55
2022/04/26 05:58:06;;;;;;;;;7.00;7.00;;;26.30;97395.96;;;;116843;1196;24956;-55
2022/04/26 06:00:35;;;;;;;;;8.00;7.00;;;26.35;97395.02;;;;116845;1196;25620;-55
2022/04/26 06:03:02;;;;;;;;;8.00;8.00;;;26.38;97390.80;;;;116858;1197;24917;-55
2022/04/26 06:05:31;;;;;;;;;9.25;6.25;;;26.38;97392.56;;;;116700;1196;25218;-55
2022/04/26 06:07:59;;;;;;;;;9.00;7.75;;;26.32;97391.30;;;;116942;1197;25672;-56
2022/04/26 06:10:28;;;;;;;;;6.25;6.00;;;26.35;97393.90;;;;116493;1198;25571;-56
2022/04/26 06:12:56;;;;;;;;;8.75;7.00;;;26.34;97397.79;;;;116814;1197;24899;-55
2022/04/26 06:15:24;;;;;;;;;7.75;6.75;;;26.34;97400.94;;;;116786;1196;25667;-56
2022/04/26 06:17:51;;;;;;;;;7.75;7.25;;;26.34;97400.63;;;;116860;1196;25647;-55
2022/04/26 06:20:22;;;;;;;;;10.50;8.00;;;26.37;97400.27;;;;116831;1197;24915;-56
2022/04/26 06:22:50;;;;;;;;;6.00;6.00;;;26.33;97398.62;;;;116908;1197;25312;-56
2022/04/26 06:25:18;;;;;;;;;5.67;4.67;;;26.34;97401.27;;;;116768;1196;25434;-56
2022/04/26 06:27:47;;;;;;;;;4.25;3.00;;;26.34;97402.00;;;;116822;1196;25593;-56
2022/04/26 06:30:17;;;;;;;;;8.00;7.00;;;26.32;97404.31;;;;116880;1196;26438;-55
2022/04/26 06:32:45;;;;;;;;;5.67;5.67;;;26.33;97406.01;;;;116586;1198;25767;-55
2022/04/26 06:35:13;;;;;;;;;7.50;5.75;;;26.34;97408.38;;;;116722;1197;25320;-55
2022/04/26 06:37:48;;;;;;;;;5.33;5.33;;;26.29;97408.02;;;;116834;1196;25375;-58
2022/04/26 06:40:18;;;;;;;;;8.33;8.33;;;26.35;97405.45;;;;116525;1198;25510;-59
2022/04/26 06:42:49;;;;;;;;;7.50;5.75;;;26.45;97403.71;;;;116604;1197;25466;-59
2022/04/26 06:45:19;;;;;;;;;9.00;8.50;;;26.49;97406.92;;;;116687;1196;24866;-60
2022/04/26 06:47:49;;;;;;;;;10.25;6.25;;;26.52;97408.19;;;;116641;1198;24901;-59
2022/04/26 06:50:22;;;;;;;;;10.25;5.00;;;26.52;97410.27;;;;116967;1196;25382;-57
2022/04/26 06:52:52;;;;;;;;;7.00;7.00;;;26.55;97411.77;;;;116850;1197;25615;-56
2022/04/26 06:55:22;;;;;;;;;7.75;6.25;;;26.47;97410.60;;;;116818;1197;25523;-58
2022/04/26 06:57:52;;;;;;;;;4.33;4.33;;;26.48;97407.95;;;;116852;1196;25641;-55
2022/04/26 07:00:24;;;;;;;;;9.00;7.33;;;26.58;97410.36;;;;116771;1198;25653;-56
2022/04/26 07:02:55;;;;;;;;;10.00;6.50;;;26.69;97406.73;;;;116938;1197;25420;-58
2022/04/26 07:05:26;;;;;;;;;7.67;6.67;;;26.76;97406.77;;;;116766;1198;24830;-60
2022/04/26 07:07:54;;;;;;;;;10.00;8.00;;;26.80;97407.60;;;;116452;1198;25206;-61
2022/04/26 07:10:22;;;;;;;;;8.00;8.00;;;26.77;97410.17;;;;116636;1198;25484;-62
2022/04/26 07:12:53;;;;;;;;;8.33;7.00;;;26.77;97413.37;;;;116755;1196;25462;-57
2022/04/26 07:15:24;;;;;;;;;8.50;8.50;;;26.82;97411.19;;;;116546;1196;24890;-56
2022/04/26 07:17:53;;;;;;;;;5.25;5.25;;;26.85;97410.55;;;;116653;1197;25051;-58
2022/04/26 07:20:24;;;;;;;;;9.00;9.00;;;26.90;97412.88;;;;116893;1196;26631;-57
2022/04/26 07:22:57;;;;;;;;;7.00;7.00;;;26.98;97416.73;;;;116735;1196;25619;-57
2022/04/26 07:25:27;;;;;;;;;9.25;7.50;;;27.01;97420.45;;;;116739;1197;25727;-58
2022/04/26 07:27:55;;;;;;;;;7.00;6.67;;;26.98;97419.39;;;;116943;1198;25539;-57
2022/04/26 07:30:45;;;;;;;;;9.00;6.00;;;26.99;97421.65;;;;116851;1197;25474;-60
2022/04/26 07:36:05;;;;;;;;;5.00;5.00;;;27.07;97425.95;;;;116737;1198;25169;-68
2022/04/26 07:38:33;;;;;;;;;6.67;6.33;;;27.08;97429.56;;;;116762;1196;25074;-62
2022/04/26 07:41:02;;;;;;;;;14.00;7.00;;;27.08;97433.65;;;;116724;1196;25589;-59
2022/04/26 07:43:30;;;;;;;;;5.33;5.33;;;27.07;97437.73;;;;116704;1197;26371;-59
2022/04/26 07:45:58;;;;;;;;;8.00;5.00;;;27.08;97435.38;;;;116664;1198;24834;-59
2022/04/26 07:48:30;;;;;;;;;6.67;5.00;;;27.06;97437.91;;;;116838;1196;25433;-59
2022/04/26 07:51:00;;;;;;;;;6.75;4.00;;;27.16;97440.96;;;;116834;1196;25313;-58
2022/04/26 07:53:35;;;;;;;;;4.00;4.00;;;27.21;97447.10;;;;116912;1196;24751;-62
2022/04/26 07:56:06;;;;;;;;;8.00;7.50;;;27.24;97452.66;;;;116922;1197;24949;-62
2022/04/26 07:58:47;;;;;;;;;8.75;4.25;;;27.35;97451.84;;;;116924;1197;25949;-58
2022/04/26 08:01:18;;;;;;;;;6.75;4.00;;;27.42;97457.12;;;;117219;1197;24791;-56
2022/04/26 08:03:51;;;;;;;;;4.50;4.50;;;27.60;97461.84;;;;117121;1197;25555;-56
2022/04/26 08:06:27;;;;;;;;;5.67;5.67;;;27.59;97458.67;;;;116920;1197;25349;-58
2022/04/26 08:08:58;;;;;;;;;7.00;5.50;;;27.57;97461.14;;;;116769;1198;24780;-57
2022/04/26 08:11:30;;;;;;;;;4.00;3.75;;;27.58;97461.92;;;;116803;1197;26124;-57
2022/04/26 08:14:01;;;;;;;;;27.50;24.75;;;27.57;97463.42;;;;116785;1197;25281;-59
2022/04/26 08:16:28;;;;;;;;;35.00;33.00;;;27.51;97457.94;;;;116649;1196;24949;-58
2022/04/26 08:18:59;;;;;;;;;21.33;15.33;;;27.41;97454.94;;;;116794;1197;25305;-55
2022/04/26 08:21:27;;;;;;;;;10.67;9.67;;;27.35;97454.30;;;;116828;1197;26066;-57
2022/04/26 08:29:38;;;;;;;;;9.00;8.00;;;27.33;97457.27;;;;116703;1195;25018;-57
2022/04/26 08:32:13;;;;;;;;;9.25;7.00;;;27.31;97458.45;;;;116833;1197;25054;-58
2022/04/26 08:34:51;;;;;;;;;5.67;4.67;;;27.36;97459.02;;;;116688;1196;26021;-58
2022/04/26 08:37:20;;;;;;;;;9.67;8.33;;;27.42;97454.69;;;;116556;1197;25798;-58
2022/04/26 08:39:52;;;;;;;;;8.25;8.25;;;27.30;97455.04;;;;116804;1197;24906;-57
2022/04/26 08:42:42;;;;;;;;;11.67;4.67;;;27.23;97455.32;;;;116817;1198;25267;-57
2022/04/26 08:45:23;;;;;;;;;16.50;8.00;;;27.21;97454.90;;;;116747;1198;24949;-64
2022/04/26 08:53:46;;;;;;;;;11.00;8.00;;;27.25;97457.29;;;;116783;1197;25287;-63
2022/04/26 08:56:20;;;;;;;;;7.33;5.00;;;27.30;97459.48;;;;116678;1198;25064;-60
2022/04/26 08:58:50;;;;;;;;;10.00;6.33;;;27.36;97459.02;;;;116813;1196;25829;-62
2022/04/26 09:01:22;;;;;;;;;8.50;5.00;;;27.33;97455.83;;;;116665;1197;25387;-55
2022/04/26 09:03:59;;;;;;;;;8.00;5.67;;;27.24;97454.73;;;;116672;1197;25407;-60
2022/04/26 09:06:38;;;;;;;;;11.00;4.00;;;27.20;97454.73;;;;116706;1196;25778;-59
2022/04/26 09:09:13;;;;;;;;;6.00;4.50;;;27.20;97453.70;;;;116698;1196;25181;-55
2022/04/26 09:11:42;;;;;;;;;7.25;6.00;;;27.22;97457.47;;;;116509;1198;25223;-54
2022/04/26 09:14:47;;;;;;;;;9.33;4.33;;;27.22;97460.05;;;;116602;1196;25657;-59
2022/04/26 09:17:20;;;;;;;;;4.33;3.67;;;27.25;97460.25;;;;116832;1197;25738;-61
2022/04/26 09:19:56;;;;;;;;;4.67;4.67;;;27.27;97458.05;;;;116730;1197;25644;-58
2022/04/26 09:22:27;;;;;;;;;10.00;5.50;;;27.23;97454.39;;;;116834;1198;25275;-60
2022/04/26 09:25:03;;;;;;;;;8.00;6.00;;;27.25;97455.40;;;;116850;1196;25368;-60
2022/04/26 09:27:38;;;;;;;;;7.67;6.33;;;27.28;97454.66;;;;116796;1198;25127;-63
2022/04/26 09:30:16;;;;;;;;;9.25;5.50;;;27.32;97451.46;;;;116805;1196;25338;-64
2022/04/26 09:32:47;;;;;;;;;10.25;7.75;;;27.38;97451.77;;;;116746;1196;25439;-60
2022/04/26 09:35:35;;;;;;;;;6.50;6.25;;;27.41;97449.79;;;;116850;1197;24866;-59
2022/04/26 09:38:10;;;;;;;;;12.75;8.00;;;27.45;97451.89;;;;116762;1197;25667;-59
2022/04/26 09:40:45;;;;;;;;;6.67;4.00;;;27.49;97450.92;;;;116749;1196;25724;-59
2022/04/26 09:43:17;;;;;;;;;9.75;7.75;;;27.51;97449.60;;;;116673;1196;24803;-61
2022/04/26 09:45:55;;;;;;;;;7.33;5.00;;;27.49;97444.85;;;;116808;1196;25677;-58
2022/04/26 09:48:38;;;;;;;;;9.25;6.25;;;27.45;97444.08;;;;116815;1196;25272;-61
2022/04/26 09:51:09;;;;;;;;;6.75;5.50;;;27.45;97442.42;;;;116828;1196;25281;-62
2022/04/26 09:53:38;;;;;;;;;11.33;8.67;;;27.47;97444.98;;;;116766;1197;25584;-58
2022/04/26 09:56:13;;;;;;;;;19.00;10.00;;;27.49;97446.02;;;;116638;1196;25122;-61
2022/04/26 09:58:57;;;;;;;;;17.00;13.00;;;27.47;97441.37;;;;116860;1197;26014;-62
2022/04/26 10:01:30;;;;;;;;;17.67;9.00;;;27.49;97441.66;;;;116801;1197;24800;-61
2022/04/26 10:04:10;;;;;;;;;13.00;13.00;;;27.46;97438.98;;;;116847;1197;25888;-61
2022/04/26 10:06:49;;;;;;;;;13.00;9.00;;;27.48;97440.13;;;;116916;1197;24903;-63
2022/04/26 10:09:18;;;;;;;;;15.50;10.25;;;27.53;97437.35;;;;116859;1197;25215;-63
2022/04/26 10:11:51;;;;;;;;;11.00;9.75;;;27.51;97432.77;;;;116911;1197;25455;-64
2022/04/26 10:14:23;;;;;;;;;19.00;16.00;;;27.48;97432.27;;;;116796;1197;25543;-59
2022/04/26 10:16:57;;;;;;;;;18.00;12.00;;;27.47;97432.86;;;;116861;1197;25349;-63
2022/04/26 10:19:40;;;;;;;;;25.00;16.00;;;27.47;97434.03;;;;116519;1198;25579;-62
2022/04/26 10:22:08;;;;;;;;;15.67;10.67;;;27.46;97435.85;;;;116860;1197;26386;-64
2022/04/26 10:24:38;;;;;;;;;15.50;13.00;;;27.44;97435.73;;;;116801;1196;24713;-62
2022/04/26 10:27:27;;;;;;;;;18.25;11.50;;;27.44;97434.23;;;;116818;1197;25342;-60
2022/04/26 10:29:55;;;;;;;;;18.50;13.25;;;27.44;97434.96;;;;116909;1197;24950;-62
2022/04/26 10:32:40;;;;;;;;;22.00;10.33;;;27.44;97435.36;;;;116814;1198;25521;-65
2022/04/26 10:35:26;;;;;;;;;9.00;9.00;;;27.41;97431.35;;;;116805;1197;25292;-67
2022/04/26 10:38:21;;;;;;;;;17.67;11.33;;;27.40;97431.45;;;;116625;1197;25275;-65
2022/04/26 10:41:07;;;;;;;;;22.67;16.00;;;27.46;97437.11;;;;116749;1197;25316;-66
2022/04/26 10:43:38;;;;;;;;;14.50;11.50;;;27.48;97439.17;;;;116926;1197;24982;-65
2022/04/26 10:46:21;;;;;;;;;16.75;8.25;;;27.44;97438.93;;;;116863;1197;24959;-66
2022/04/26 10:48:53;;;;;;;;;13.00;11.00;;;27.45;97435.05;;;;116860;1197;25592;-60
2022/04/26 10:51:39;;;;;;;;;19.67;10.00;;;27.45;97437.22;;;;116820;1197;26058;-64
2022/04/26 10:54:10;;;;;;;;;16.00;11.33;;;27.42;97439.50;;;;116823;1196;25530;-67
2022/04/26 10:56:41;;;;;;;;;15.25;11.25;;;27.38;97434.45;;;;116787;1197;26022;-68
2022/04/26 10:59:15;;;;;;;;;13.33;10.00;;;27.38;97430.67;;;;116560;1197;24875;-60
2022/04/26 11:01:47;;;;;;;;;17.33;11.00;;;27.38;97430.00;;;;116690;1197;24893;-64
2022/04/26 11:04:19;;;;;;;;;14.75;11.25;;;27.41;97429.80;;;;116381;1197;25048;-62
2022/04/26 11:06:50;;;;;;;;;13.33;10.67;;;27.36;97426.84;;;;116864;1197;24830;-66
2022/04/26 11:09:18;;;;;;;;;14.00;4.50;;;27.36;97426.02;;;;116814;1197;24953;-68
2022/04/26 11:11:52;;;;;;;;;13.00;9.75;;;27.36;97421.96;;;;116928;1197;25052;-61
2022/04/26 11:14:26;;;;;;;;;12.25;9.25;;;27.37;97422.95;;;;116793;1198;26379;-65
2022/04/26 11:17:08;;;;;;;;;13.75;7.75;;;27.37;97423.77;;;;116744;1197;25100;-65
2022/04/26 11:19:40;;;;;;;;;15.75;8.25;;;27.39;97421.95;;;;116732;1196;25459;-62
2022/04/26 11:22:13;;;;;;;;;7.50;6.25;;;27.45;97421.86;;;;116726;1197;25278;-64
2022/04/26 11:30:31;;;;;;;;;12.33;8.33;;;27.47;97422.67;;;;116584;1197;25523;-62
2022/04/26 11:33:07;;;;;;;;;9.50;6.50;;;27.44;97422.34;;;;116909;1197;24787;-64
2022/04/26 11:35:39;;;;;;;;;8.00;6.00;;;27.47;97418.59;;;;116840;1197;25485;-67
2022/04/26 11:38:18;;;;;;;;;9.00;6.33;;;27.45;97418.61;;;;116916;1197;24904;-60
2022/04/26 11:40:48;;;;;;;;;9.00;4.33;;;27.47;97418.59;;;;116908;1197;25506;-65
2022/04/26 11:43:21;;;;;;;;;7.75;5.25;;;27.47;97424.05;;;;116887;1198;25163;-65
2022/04/26 11:45:52;;;;;;;;;11.25;5.50;;;27.48;97425.89;;;;116886;1197;24935;-59
2022/04/26 11:48:29;;;;;;;;;5.50;4.50;;;27.53;97425.52;;;;116750;1196;25780;-61
2022/04/26 11:51:01;;;;;;;;;7.50;6.75;;;27.53;97422.73;;;;116778;1198;25562;-67
2022/04/26 11:53:34;;;;;;;;;8.33;7.00;;;27.51;97417.26;;;;116719;1196;25652;-70
2022/04/26 11:56:06;;;;;;;;;8.00;4.25;;;27.51;97415.39;;;;116822;1197;25349;-64
2022/04/26 11:58:40;;;;;;;;;7.50;6.50;;;27.51;97411.16;;;;116883;1197;24946;-62
2022/04/26 12:01:16;;;;;;;;;7.33;5.00;;;27.48;97414.48;;;;116929;1198;25011;-65
2022/04/26 12:03:49;;;;;;;;;8.25;5.50;;;27.48;97416.36;;;;116843;1198;25384;-63
2022/04/26 12:06:32;;;;;;;;;5.75;4.00;;;27.47;97413.53;;;;116831;1196;25339;-62
2022/04/26 12:09:09;;;;;;;;;6.00;4.33;;;27.47;97405.42;;;;116882;1196;25189;-61
2022/04/26 12:11:40;;;;;;;;;6.00;3.00;;;27.48;97402.09;;;;116894;1197;25359;-63
2022/04/26 12:14:20;;;;;;;;;7.33;6.33;;;27.49;97397.38;;;;116861;1197;25624;-62
2022/04/26 12:16:59;;;;;;;;;6.33;5.00;;;27.48;97400.58;;;;116857;1197;24883;-62
2022/04/26 12:19:39;;;;;;;;;4.00;4.00;;;27.45;97400.21;;;;116550;1197;25195;-64
2022/04/26 12:22:10;;;;;;;;;6.00;3.33;;;27.45;97394.64;;;;116948;1196;25799;-67
2022/04/26 12:24:52;;;;;;;;;3.67;3.33;;;27.48;97390.92;;;;116884;1197;25256;-63
2022/04/26 12:27:26;;;;;;;;;5.67;5.00;;;27.47;97385.88;;;;116736;1197;25344;-63
2022/04/26 12:29:56;;;;;;;;;6.50;4.75;;;27.46;97387.20;;;;116730;1196;25209;-62
2022/04/26 12:32:29;;;;;;;;;4.00;3.33;;;27.46;97383.32;;;;117036;1198;25245;-64
2022/04/26 12:34:58;;;;;;;;;4.00;4.00;;;27.52;97381.10;;;;116992;1196;25695;-61
2022/04/26 12:37:32;;;;;;;;;3.00;3.00;;;27.54;97385.23;;;;116720;1196;25686;-62
2022/04/26 12:40:11;;;;;;;;;4.25;3.25;;;27.54;97382.05;;;;116623;1198;25196;-63
2022/04/26 12:42:42;;;;;;;;;7.33;6.00;;;27.56;97381.88;;;;117035;1196;24996;-63
2022/04/26 12:45:21;;;;;;;;;3.67;2.33;;;27.65;97386.47;;;;117060;1197;25436;-59
2022/04/26 12:50:54;;;;;;;;;5.67;3.00;;;27.69;97387.21;;;;116969;1197;25550;-63
2022/04/26 12:53:34;;;;;;;;;5.33;3.67;;;27.68;97391.05;;;;117097;1196;25167;-54
2022/04/26 12:56:12;;;;;;;;;4.00;4.00;;;27.75;97388.29;;;;116950;1197;25354;-58
2022/04/26 12:58:43;;;;;;;;;3.50;3.50;;;27.76;97383.20;;;;117030;1196;25486;-54
2022/04/26 13:01:13;;;;;;;;;7.25;5.50;;;27.80;97381.09;;;;117041;1197;25451;-60
2022/04/26 13:03:47;;;;;;;;;4.00;4.00;;;27.84;97377.27;;;;116759;1197;25016;-57
2022/04/26 13:06:21;;;;;;;;;5.25;3.50;;;27.81;97376.13;;;;117034;1197;25315;-57
2022/04/26 13:09:13;;;;;;;;;4.00;4.00;;;27.93;97368.30;;;;116989;1197;24944;-53
2022/04/26 13:11:43;;;;;;;;;8.00;4.00;;;27.85;97366.58;;;;116856;1197;24834;-58
2022/04/26 13:14:11;;;;;;;;;2.50;2.50;;;27.71;97365.38;;;;116831;1197;25630;-56
2022/04/26 13:16:59;;;;;;;;;3.00;3.00;;;27.66;97360.42;;;;116796;1197;25538;-58
2022/04/26 13:19:28;;;;;;;;;4.50;3.50;;;27.65;97362.17;;;;116793;1198;25180;-57
2022/04/26 13:21:57;;;;;;;;;4.00;3.00;;;27.59;97363.23;;;;116828;1196;24850;-56
2022/04/26 13:24:29;;;;;;;;;2.50;2.50;;;27.55;97361.78;;;;116958;1196;25852;-55
2022/04/26 13:26:57;;;;;;;;;3.00;3.00;;;27.60;97362.20;;;;116819;1197;25462;-56
2022/04/26 13:29:27;;;;;;;;;4.00;4.00;;;27.62;97357.14;;;;116697;1197;25437;-56
2022/04/26 13:31:58;;;;;;;;;2.00;2.00;;;27.57;97355.48;;;;116799;1198;25860;-56
2022/04/26 13:34:26;;;;;;;;;3.00;3.00;;;27.57;97355.58;;;;116838;1197;25359;-58
2022/04/26 13:37:07;;;;;;;;;5.00;3.25;;;27.64;97359.67;;;;116808;1197;25061;-49
2022/04/26 13:39:39;;;;;;;;;3.00;2.25;;;27.70;97360.12;;;;116781;1196;25480;-52
2022/04/26 13:42:10;;;;;;;;;5.75;3.50;;;27.75;97359.17;;;;116643;1196;24995;-49
2022/04/26 13:44:38;;;;;;;;;3.00;3.00;;;27.82;97359.38;;;;116838;1196;25473;-56
2022/04/26 13:47:07;;;;;;;;;3.00;3.00;;;27.93;97358.40;;;;116790;1197;25055;-53
2022/04/26 13:49:38;;;;;;;;;3.00;3.00;;;27.96;97360.79;;;;116556;1197;25661;-58
2022/04/26 13:52:10;;;;;;;;;4.67;3.00;;;27.89;97359.30;;;;116786;1197;25215;-55
2022/04/26 13:54:38;;;;;;;;;3.00;3.00;;;27.88;97365.17;;;;116799;1197;24731;-53
2022/04/26 13:57:05;;;;;;;;;2.00;2.00;;;27.80;97363.29;;;;116786;1197;25334;-54
2022/04/26 13:59:33;;;;;;;;;4.50;3.00;;;27.82;97361.86;;;;116838;1196;25593;-49
2022/04/26 14:02:04;;;;;;;;;3.00;3.00;;;27.83;97361.73;;;;116782;1197;25223;-53
2022/04/26 14:04:33;;;;;;;;;2.67;2.67;;;27.84;97364.23;;;;116773;1196;25265;-57
2022/04/26 14:07:01;;;;;;;;;4.00;4.00;;;27.87;97364.40;;;;116760;1196;25423;-50
2022/04/26 14:09:33;;;;;;;;;4.00;2.00;;;27.86;97364.45;;;;116889;1197;25068;-51
2022/04/26 14:12:03;;;;;;;;;4.00;2.67;;;27.90;97365.10;;;;116846;1197;25666;-49
2022/04/26 14:22:54;;;;;;;;;8.50;5.50;;;27.87;97360.77;;;;116893;1196;25430;-50
2022/04/26 14:25:33;;;;;;;;;6.00;4.67;;;27.88;97359.91;;;;116997;1197;25790;-51
2022/04/26 14:28:01;;;;;;;;;6.50;4.75;;;27.95;97358.98;;;;116935;1196;25370;-54
2022/04/26 14:30:31;;;;;;;;;4.00;2.00;;;27.97;97358.55;;;;116857;1197;25811;-52
2022/04/26 14:33:08;;;;;;;;;7.00;6.25;;;27.91;97359.82;;;;116710;1197;25617;-51
2022/04/26 14:35:39;;;;;;;;;6.50;6.50;;;27.89;97360.48;;;;116833;1196;25082;-50
2022/04/26 14:38:10;;;;;;;;;8.33;5.00;;;27.92;97359.73;;;;116733;1197;24777;-52
2022/04/26 14:40:38;;;;;;;;;8.33;7.00;;;27.90;97363.25;;;;116776;1198;24818;-54
2022/04/26 14:43:09;;;;;;;;;12.25;7.25;;;27.84;97365.41;;;;116732;1197;25435;-51
2022/04/26 14:45:46;;;;;;;;;4.75;4.75;;;27.79;97368.88;;;;116581;1196;25034;-53
2022/04/26 14:48:16;;;;;;;;;7.67;4.33;;;27.73;97371.38;;;;116763;1196;25229;-49
2022/04/26 14:50:55;;;;;;;;;6.00;5.00;;;27.89;97368.52;;;;116750;1197;25028;-51
2022/04/26 14:53:24;;;;;;;;;7.50;5.00;;;28.10;97366.94;;;;116832;1196;25383;-48
2022/04/26 14:56:09;;;;;;;;;7.75;5.50;;;28.35;97368.50;;;;116701;1196;25079;-50
2022/04/26 14:59:00;;;;;;;;;5.00;5.00;;;28.46;97370.25;;;;116707;1197;25066;-51
2022/04/26 15:01:35;;;;;;;;;9.67;7.00;;;28.53;97370.36;;;;116761;1197;25338;-53
2022/04/26 15:04:05;;;;;;;;;7.75;4.75;;;28.56;97372.05;;;;116664;1196;25463;-49
2022/04/26 15:06:35;;;;;;;;;7.33;6.33;;;28.45;97368.58;;;;116678;1196;25584;-50
2022/04/26 15:16:37;;;;;;;;;8.00;6.33;;;28.14;97365.02;;;;116687;1198;25104;-51
2022/04/26 15:17:37;;;;;;;;;5.00;4.50;;;28.00;97370.46;;;;116569;1197;25428;-50
2022/04/26 15:20:08;;;;;;;;;8.50;5.25;;;27.92;97370.33;;;;116690;1196;25835;-52
2022/04/26 15:22:40;;;;;;;;;5.00;5.00;;;27.89;97373.00;;;;116677;1196;25642;-52
2022/04/26 15:25:11;;;;;;;;;6.67;5.67;;;27.81;97374.44;;;;116635;1196;25724;-49
2022/04/26 15:27:41;;;;;;;;;7.50;4.50;;;27.76;97372.31;;;;116495;1195;26169;-49
2022/04/26 15:30:12;;;;;;;;;5.50;3.50;;;27.70;97370.36;;;;116710;1197;25090;-50
2022/04/26 15:32:43;;;;;;;;;6.33;3.33;;;27.64;97373.13;;;;116680;1196;24805;-49
2022/04/26 15:35:14;;;;;;;;;1.50;1.50;;;27.56;97367.14;;;;116716;1197;25360;-51
2022/04/26 15:37:45;;;;;;;;;3.25;3.00;;;27.48;97364.20;;;;116683;1196;25427;-51
2022/04/26 15:40:14;;;;;;;;;8.25;5.25;;;27.43;97369.47;;;;116708;1197;24856;-54
2022/04/26 15:42:46;;;;;;;;;7.00;5.00;;;27.37;97372.61;;;;116774;1197;25312;-53
2022/04/26 15:45:16;;;;;;;;;4.00;4.00;;;27.37;97370.89;;;;116703;1196;25616;-53
2022/04/26 15:47:49;;;;;;;;;4.00;3.33;;;27.32;97376.65;;;;116783;1197;25674;-52
2022/04/26 15:50:18;;;;;;;;;4.25;4.25;;;27.31;97376.68;;;;116789;1196;26489;-51
2022/04/26 15:52:48;;;;;;;;;5.00;5.00;;;27.28;97381.66;;;;116522;1196;25689;-51
2022/04/26 15:55:22;;;;;;;;;4.67;4.00;;;27.23;97387.77;;;;116641;1196;24873;-50
2022/04/26 15:57:54;;;;;;;;;4.00;4.00;;;27.24;97389.02;;;;116530;1196;24964;-54
2022/04/26 16:00:26;;;;;;;;;8.00;7.00;;;27.22;97388.67;;;;116649;1197;25370;-53
2022/04/26 16:02:56;;;;;;;;;3.00;2.75;;;27.21;97386.40;;;;116560;1197;25632;-57
2022/04/26 16:05:26;;;;;;;;;5.25;3.50;;;27.17;97387.98;;;;116600;1197;25208;-55
2022/04/26 16:07:56;;;;;;;;;5.25;5.25;;;27.12;97391.95;;;;116802;1197;26357;-54
2022/04/26 16:21:43;;;;;;;;;4.00;4.00;;;27.06;97394.84;;;;116930;1196;26273;-53
2022/04/26 16:24:12;;;;;;;;;7.00;3.67;;;27.05;97394.71;;;;116769;1196;25357;-51
2022/04/26 16:26:42;;;;;;;;;5.33;5.33;;;27.00;97397.97;;;;116561;1196;25086;-53
2022/04/26 16:29:12;;;;;;;;;5.00;4.33;;;26.94;97396.23;;;;116792;1196;25680;-51
2022/04/26 16:31:40;;;;;;;;;4.00;4.00;;;26.93;97400.39;;;;116767;1197;25738;-51
2022/04/26 16:34:09;;;;;;;;;7.00;6.50;;;26.92;97396.73;;;;116740;1197;25372;-51
2022/04/26 16:36:42;;;;;;;;;4.25;3.25;;;26.92;97395.67;;;;116793;1197;25718;-51
2022/04/26 16:39:11;;;;;;;;;3.33;3.33;;;26.96;97395.22;;;;116739;1197;25083;-51
2022/04/26 16:41:43;;;;;;;;;4.67;4.67;;;26.97;97396.42;;;;116764;1197;25182;-50
2022/04/26 16:44:15;;;;;;;;;4.00;4.00;;;26.98;97396.98;;;;116804;1197;25676;-53
2022/04/26 16:46:46;;;;;;;;;6.00;6.00;;;27.02;97397.54;;;;116729;1196;25079;-49
2022/04/26 16:49:18;;;;;;;;;9.00;7.67;;;27.01;97398.78;;;;116774;1196;25250;-54
2022/04/26 16:51:47;;;;;;;;;5.75;4.75;;;27.01;97400.71;;;;116692;1196;25802;-50
2022/04/26 16:54:18;;;;;;;;;9.33;7.00;;;27.00;97405.16;;;;116763;1196;25688;-50
2022/04/26 16:56:47;;;;;;;;;4.00;4.00;;;27.00;97412.48;;;;116805;1196;24733;-52
2022/04/26 16:59:17;;;;;;;;;5.00;5.00;;;27.03;97413.23;;;;116733;1197;25664;-50